sensor_id;sensor_type;location;lat;lon;timestamp;temperature;humidity
26721;HTU21D;15950;51.112;6.966;2022-09-27T00:00:13;11.21;95.62
26721;HTU21D;15950;51.112;6.966;2022-09-27T00:03:13;11.49;95.07
26721;HTU21D;15950;51.112;6.966;2022-09-27T00:06:19;11.38;95.27
26721;HTU21D;15950;51.112;6.966;2022-09-27T00:09:13;11.45;94.87
26721;HTU21D;15950;51.112;6.966;2022-09-27T00:12:13;11.31;95.69
26721;HTU21D;15950;51.112;6.966;2022-09-27T00:15:13;11.03;95.59
26721;HTU21D;15950;51.112;6.966;2022-09-27T00:18:13;11.17;95.97
26721;HTU21D;15950;51.112;6.966;2022-09-27T00:21:13;11.18;95.65
26721;HTU21D;15950;51.112;6.966;2022-09-27T00:24:15;11.19;95.14
26721;HTU21D;15950;51.112;6.966;2022-09-27T00:27:13;11.16;94.94
26721;HTU21D;15950;51.112;6.966;2022-09-27T00:30:13;11.24;94.90
26721;HTU21D;15950;51.112;6.966;2022-09-27T00:33:13;11.25;95.07
26721;HTU21D;15950;51.112;6.966;2022-09-27T00:36:13;11.11;94.95
26721;HTU21D;15950;51.112;6.966;2022-09-27T00:39:13;11.29;94.91
26721;HTU21D;15950;51.112;6.966;2022-09-27T00:42:14;11.05;95.04
26721;HTU21D;15950;51.112;6.966;2022-09-27T00:45:14;11.09;95.07
26721;HTU21D;15950;51.112;6.966;2022-09-27T00:48:15;11.15;95.00
26721;HTU21D;15950;51.112;6.966;2022-09-27T00:51:13;10.90;95.32
26721;HTU21D;15950;51.112;6.966;2022-09-27T00:54:14;11.08;95.38
26721;HTU21D;15950;51.112;6.966;2022-09-27T00:57:13;11.33;94.53
26721;HTU21D;15950;51.112;6.966;2022-09-27T01:00:13;11.40;93.99
26721;HTU21D;15950;51.112;6.966;2022-09-27T01:03:21;10.87;94.70
26721;HTU21D;15950;51.112;6.966;2022-09-27T01:06:13;11.18;94.82
26721;HTU21D;15950;51.112;6.966;2022-09-27T01:09:13;11.02;95.17
26721;HTU21D;15950;51.112;6.966;2022-09-27T01:48:18;10.91;95.62
26721;HTU21D;15950;51.112;6.966;2022-09-27T01:51:20;10.83;95.43
26721;HTU21D;15950;51.112;6.966;2022-09-27T01:54:18;10.94;95.57
26721;HTU21D;15950;51.112;6.966;2022-09-27T01:57:16;10.93;95.21
26721;HTU21D;15950;51.112;6.966;2022-09-27T02:00:13;10.91;95.30
26721;HTU21D;15950;51.112;6.966;2022-09-27T02:03:21;10.98;95.24
26721;HTU21D;15950;51.112;6.966;2022-09-27T02:09:19;10.95;95.26
26721;HTU21D;15950;51.112;6.966;2022-09-27T02:12:15;10.80;95.68
26721;HTU21D;15950;51.112;6.966;2022-09-27T02:15:13;10.90;95.88
26721;HTU21D;15950;51.112;6.966;2022-09-27T02:18:17;10.90;95.93
26721;HTU21D;15950;51.112;6.966;2022-09-27T02:21:14;10.86;95.71
26721;HTU21D;15950;51.112;6.966;2022-09-27T02:24:17;10.87;95.39
26721;HTU21D;15950;51.112;6.966;2022-09-27T02:27:22;10.82;95.71
26721;HTU21D;15950;51.112;6.966;2022-09-27T02:30:14;10.93;95.26
26721;HTU21D;15950;51.112;6.966;2022-09-27T02:33:13;10.99;95.04
26721;HTU21D;15950;51.112;6.966;2022-09-27T02:36:13;10.68;95.21
26721;HTU21D;15950;51.112;6.966;2022-09-27T02:39:13;10.81;95.18
26721;HTU21D;15950;51.112;6.966;2022-09-27T02:42:13;10.84;95.07
26721;HTU21D;15950;51.112;6.966;2022-09-27T02:45:15;10.72;95.15
26721;HTU21D;15950;51.112;6.966;2022-09-27T03:00:22;10.84;94.98
26721;HTU21D;15950;51.112;6.966;2022-09-27T03:06:15;10.83;95.14
26721;HTU21D;15950;51.112;6.966;2022-09-27T03:09:20;10.82;94.73
26721;HTU21D;15950;51.112;6.966;2022-09-27T03:12:14;10.90;94.68
26721;HTU21D;15950;51.112;6.966;2022-09-27T03:15:13;10.64;95.02
26721;HTU21D;15950;51.112;6.966;2022-09-27T03:18:13;10.62;95.23
26721;HTU21D;15950;51.112;6.966;2022-09-27T03:21:13;10.58;95.15
26721;HTU21D;15950;51.112;6.966;2022-09-27T03:24:13;10.65;95.29
26721;HTU21D;15950;51.112;6.966;2022-09-27T03:27:13;10.58;95.36
26721;HTU21D;15950;51.112;6.966;2022-09-27T03:30:13;10.58;95.30
26721;HTU21D;15950;51.112;6.966;2022-09-27T03:33:13;10.74;94.86
26721;HTU21D;15950;51.112;6.966;2022-09-27T03:36:13;10.60;95.25
26721;HTU21D;15950;51.112;6.966;2022-09-27T03:39:13;10.62;95.14
26721;HTU21D;15950;51.112;6.966;2022-09-27T03:42:13;10.58;94.97
26721;HTU21D;15950;51.112;6.966;2022-09-27T03:45:13;10.41;95.19
26721;HTU21D;15950;51.112;6.966;2022-09-27T03:48:13;10.60;94.61
26721;HTU21D;15950;51.112;6.966;2022-09-27T03:51:13;10.47;94.61
26721;HTU21D;15950;51.112;6.966;2022-09-27T03:54:13;10.56;94.46
26721;HTU21D;15950;51.112;6.966;2022-09-27T03:57:13;10.48;94.35
26721;HTU21D;15950;51.112;6.966;2022-09-27T04:00:13;10.65;93.69
26721;HTU21D;15950;51.112;6.966;2022-09-27T04:03:13;10.36;94.18
26721;HTU21D;15950;51.112;6.966;2022-09-27T04:06:13;10.37;94.44
26721;HTU21D;15950;51.112;6.966;2022-09-27T04:09:13;10.41;94.36
26721;HTU21D;15950;51.112;6.966;2022-09-27T04:12:13;10.28;94.89
26721;HTU21D;15950;51.112;6.966;2022-09-27T04:15:13;10.51;94.14
26721;HTU21D;15950;51.112;6.966;2022-09-27T04:18:13;10.48;94.17
26721;HTU21D;15950;51.112;6.966;2022-09-27T04:21:13;10.21;94.60
26721;HTU21D;15950;51.112;6.966;2022-09-27T04:24:13;10.30;94.35
26721;HTU21D;15950;51.112;6.966;2022-09-27T04:27:13;10.49;93.45
26721;HTU21D;15950;51.112;6.966;2022-09-27T04:30:13;10.56;92.82
26721;HTU21D;15950;51.112;6.966;2022-09-27T04:33:13;10.51;93.04
26721;HTU21D;15950;51.112;6.966;2022-09-27T04:36:17;10.52;92.24
26721;HTU21D;15950;51.112;6.966;2022-09-27T04:39:13;10.34;92.35
26721;HTU21D;15950;51.112;6.966;2022-09-27T04:42:13;10.46;92.24
26721;HTU21D;15950;51.112;6.966;2022-09-27T04:45:13;10.10;92.88
26721;HTU21D;15950;51.112;6.966;2022-09-27T04:48:13;10.38;92.43
26721;HTU21D;15950;51.112;6.966;2022-09-27T04:51:13;10.30;92.29
26721;HTU21D;15950;51.112;6.966;2022-09-27T04:54:13;10.24;92.14
26721;HTU21D;15950;51.112;6.966;2022-09-27T04:57:13;10.24;92.32
26721;HTU21D;15950;51.112;6.966;2022-09-27T05:00:13;10.13;92.27
26721;HTU21D;15950;51.112;6.966;2022-09-27T05:03:13;10.26;92.58
26721;HTU21D;15950;51.112;6.966;2022-09-27T05:06:13;10.13;92.92
26721;HTU21D;15950;51.112;6.966;2022-09-27T05:09:13;9.98;93.53
26721;HTU21D;15950;51.112;6.966;2022-09-27T05:12:13;10.19;92.84
26721;HTU21D;15950;51.112;6.966;2022-09-27T05:15:13;10.27;92.80
26721;HTU21D;15950;51.112;6.966;2022-09-27T05:18:12;10.29;92.19
26721;HTU21D;15950;51.112;6.966;2022-09-27T05:21:13;10.34;91.89
26721;HTU21D;15950;51.112;6.966;2022-09-27T05:24:12;10.27;91.85
26721;HTU21D;15950;51.112;6.966;2022-09-27T05:27:14;10.09;92.68
26721;HTU21D;15950;51.112;6.966;2022-09-27T05:30:12;10.32;91.69
26721;HTU21D;15950;51.112;6.966;2022-09-27T05:33:12;10.39;91.44
26721;HTU21D;15950;51.112;6.966;2022-09-27T05:36:12;10.39;91.40
26721;HTU21D;15950;51.112;6.966;2022-09-27T05:39:13;10.43;90.83
26721;HTU21D;15950;51.112;6.966;2022-09-27T05:42:12;10.34;91.01
26721;HTU21D;15950;51.112;6.966;2022-09-27T05:45:13;10.35;91.55
26721;HTU21D;15950;51.112;6.966;2022-09-27T05:48:12;10.31;91.56
26721;HTU21D;15950;51.112;6.966;2022-09-27T05:51:12;10.34;91.27
26721;HTU21D;15950;51.112;6.966;2022-09-27T05:54:12;10.26;91.38
26721;HTU21D;15950;51.112;6.966;2022-09-27T05:57:12;10.16;91.85
26721;HTU21D;15950;51.112;6.966;2022-09-27T06:00:13;10.05;91.14
26721;HTU21D;15950;51.112;6.966;2022-09-27T06:03:13;10.16;91.27
26721;HTU21D;15950;51.112;6.966;2022-09-27T06:06:13;10.07;91.28
26721;HTU21D;15950;51.112;6.966;2022-09-27T06:09:14;9.97;91.40
26721;HTU21D;15950;51.112;6.966;2022-09-27T06:12:12;10.01;91.42
26721;HTU21D;15950;51.112;6.966;2022-09-27T06:15:12;10.01;91.24
26721;HTU21D;15950;51.112;6.966;2022-09-27T06:18:14;9.87;91.50
26721;HTU21D;15950;51.112;6.966;2022-09-27T06:21:12;10.01;91.13
26721;HTU21D;15950;51.112;6.966;2022-09-27T06:24:12;9.78;92.01
26721;HTU21D;15950;51.112;6.966;2022-09-27T06:27:12;9.98;91.18
26721;HTU21D;15950;51.112;6.966;2022-09-27T06:30:12;10.02;90.92
26721;HTU21D;15950;51.112;6.966;2022-09-27T06:33:16;9.99;90.85
26721;HTU21D;15950;51.112;6.966;2022-09-27T06:36:13;9.83;91.39
26721;HTU21D;15950;51.112;6.966;2022-09-27T06:39:12;10.09;90.83
26721;HTU21D;15950;51.112;6.966;2022-09-27T06:42:12;10.22;90.40
26721;HTU21D;15950;51.112;6.966;2022-09-27T06:45:12;10.27;90.47
26721;HTU21D;15950;51.112;6.966;2022-09-27T06:48:14;10.11;91.27
26721;HTU21D;15950;51.112;6.966;2022-09-27T06:51:13;9.96;90.93
26721;HTU21D;15950;51.112;6.966;2022-09-27T06:54:12;10.18;90.57
26721;HTU21D;15950;51.112;6.966;2022-09-27T06:57:12;10.15;90.42
26721;HTU21D;15950;51.112;6.966;2022-09-27T07:00:13;10.18;90.60
26721;HTU21D;15950;51.112;6.966;2022-09-27T07:03:13;10.13;90.62
26721;HTU21D;15950;51.112;6.966;2022-09-27T07:06:19;10.16;90.54
26721;HTU21D;15950;51.112;6.966;2022-09-27T07:09:12;10.24;90.25
26721;HTU21D;15950;51.112;6.966;2022-09-27T07:12:12;10.18;90.87
26721;HTU21D;15950;51.112;6.966;2022-09-27T07:15:13;10.24;90.69
26721;HTU21D;15950;51.112;6.966;2022-09-27T07:18:13;10.19;91.07
26721;HTU21D;15950;51.112;6.966;2022-09-27T07:21:12;10.15;91.05
26721;HTU21D;15950;51.112;6.966;2022-09-27T07:24:12;10.09;90.96
26721;HTU21D;15950;51.112;6.966;2022-09-27T07:27:13;10.16;90.86
26721;HTU21D;15950;51.112;6.966;2022-09-27T07:30:13;10.08;91.46
26721;HTU21D;15950;51.112;6.966;2022-09-27T07:33:12;10.04;91.16
26721;HTU21D;15950;51.112;6.966;2022-09-27T07:36:13;10.06;91.05
26721;HTU21D;15950;51.112;6.966;2022-09-27T07:39:12;10.21;90.95
26721;HTU21D;15950;51.112;6.966;2022-09-27T07:42:12;10.10;90.66
26721;HTU21D;15950;51.112;6.966;2022-09-27T07:45:12;10.09;90.89
26721;HTU21D;15950;51.112;6.966;2022-09-27T07:48:14;10.17;91.01
26721;HTU21D;15950;51.112;6.966;2022-09-27T07:51:12;10.08;91.05
26721;HTU21D;15950;51.112;6.966;2022-09-27T07:54:12;10.21;90.34
26721;HTU21D;15950;51.112;6.966;2022-09-27T07:57:14;10.35;90.65
26721;HTU21D;15950;51.112;6.966;2022-09-27T08:00:15;10.30;90.73
26721;HTU21D;15950;51.112;6.966;2022-09-27T08:03:14;10.26;91.37
26721;HTU21D;15950;51.112;6.966;2022-09-27T08:06:12;10.25;90.97
26721;HTU21D;15950;51.112;6.966;2022-09-27T08:09:12;10.25;91.31
26721;HTU21D;15950;51.112;6.966;2022-09-27T08:12:12;10.22;91.72
26721;HTU21D;15950;51.112;6.966;2022-09-27T08:15:12;10.28;91.90
26721;HTU21D;15950;51.112;6.966;2022-09-27T08:18:12;10.42;92.24
26721;HTU21D;15950;51.112;6.966;2022-09-27T08:21:12;10.25;92.07
26721;HTU21D;15950;51.112;6.966;2022-09-27T08:24:13;10.27;92.04
26721;HTU21D;15950;51.112;6.966;2022-09-27T08:27:13;10.38;92.27
26721;HTU21D;15950;51.112;6.966;2022-09-27T08:30:12;10.36;92.15
26721;HTU21D;15950;51.112;6.966;2022-09-27T08:33:12;10.37;91.67
26721;HTU21D;15950;51.112;6.966;2022-09-27T08:36:12;10.48;91.33
26721;HTU21D;15950;51.112;6.966;2022-09-27T08:39:12;10.61;91.53
26721;HTU21D;15950;51.112;6.966;2022-09-27T08:48:14;10.64;90.45
26721;HTU21D;15950;51.112;6.966;2022-09-27T08:51:13;10.53;91.29
26721;HTU21D;15950;51.112;6.966;2022-09-27T08:54:22;10.67;91.02
26721;HTU21D;15950;51.112;6.966;2022-09-27T08:57:13;10.63;90.50
26721;HTU21D;15950;51.112;6.966;2022-09-27T09:00:13;10.67;90.31
26721;HTU21D;15950;51.112;6.966;2022-09-27T09:03:17;10.46;90.19
26721;HTU21D;15950;51.112;6.966;2022-09-27T09:06:37;10.72;90.22
26721;HTU21D;15950;51.112;6.966;2022-09-27T09:18:21;10.79;90.60
26721;HTU21D;15950;51.112;6.966;2022-09-27T09:39:21;11.06;89.79
26721;HTU21D;15950;51.112;6.966;2022-09-27T09:42:18;10.97;89.15
26721;HTU21D;15950;51.112;6.966;2022-09-27T09:48:22;10.99;88.60
26721;HTU21D;15950;51.112;6.966;2022-09-27T09:51:17;10.95;87.83
26721;HTU21D;15950;51.112;6.966;2022-09-27T09:54:23;11.18;88.35
26721;HTU21D;15950;51.112;6.966;2022-09-27T10:00:15;11.19;87.74
26721;HTU21D;15950;51.112;6.966;2022-09-27T10:03:12;11.13;87.38
26721;HTU21D;15950;51.112;6.966;2022-09-27T10:06:13;11.29;86.27
26721;HTU21D;15950;51.112;6.966;2022-09-27T10:09:15;11.34;87.48
26721;HTU21D;15950;51.112;6.966;2022-09-27T10:12:12;11.39;86.24
26721;HTU21D;15950;51.112;6.966;2022-09-27T10:15:19;11.28;86.07
26721;HTU21D;15950;51.112;6.966;2022-09-27T10:18:16;11.25;85.07
26721;HTU21D;15950;51.112;6.966;2022-09-27T10:21:20;11.31;84.84
26721;HTU21D;15950;51.112;6.966;2022-09-27T10:24:14;11.21;85.20
26721;HTU21D;15950;51.112;6.966;2022-09-27T10:27:12;11.17;84.44
26721;HTU21D;15950;51.112;6.966;2022-09-27T10:33:16;11.24;85.84
26721;HTU21D;15950;51.112;6.966;2022-09-27T10:39:21;11.30;87.57
26721;HTU21D;15950;51.112;6.966;2022-09-27T10:48:18;11.30;86.64
26721;HTU21D;15950;51.112;6.966;2022-09-27T10:51:21;11.45;86.47
26721;HTU21D;15950;51.112;6.966;2022-09-27T10:54:24;11.52;87.04
26721;HTU21D;15950;51.112;6.966;2022-09-27T10:57:21;11.55;86.16
26721;HTU21D;15950;51.112;6.966;2022-09-27T11:00:22;11.41;85.33
26721;HTU21D;15950;51.112;6.966;2022-09-27T11:03:14;11.42;85.18
26721;HTU21D;15950;51.112;6.966;2022-09-27T11:06:18;11.31;86.18
26721;HTU21D;15950;51.112;6.966;2022-09-27T11:09:19;11.34;86.74
26721;HTU21D;15950;51.112;6.966;2022-09-27T11:12:14;11.48;87.10
26721;HTU21D;15950;51.112;6.966;2022-09-27T11:15:15;11.51;87.18
26721;HTU21D;15950;51.112;6.966;2022-09-27T11:18:24;11.55;87.19
26721;HTU21D;15950;51.112;6.966;2022-09-27T11:24:24;11.68;87.63
26721;HTU21D;15950;51.112;6.966;2022-09-27T11:30:18;11.65;87.50
26721;HTU21D;15950;51.112;6.966;2022-09-27T11:39:22;11.63;86.35
26721;HTU21D;15950;51.112;6.966;2022-09-27T11:54:38;12.10;86.25
26721;HTU21D;15950;51.112;6.966;2022-09-27T12:06:16;12.05;84.26
26721;HTU21D;15950;51.112;6.966;2022-09-27T12:09:27;12.12;82.67
26721;HTU21D;15950;51.112;6.966;2022-09-27T12:21:13;12.22;81.31
26721;HTU21D;15950;51.112;6.966;2022-09-27T12:24:22;12.15;79.82
26721;HTU21D;15950;51.112;6.966;2022-09-27T12:27:18;12.26;80.70
26721;HTU21D;15950;51.112;6.966;2022-09-27T12:30:13;12.32;78.56
26721;HTU21D;15950;51.112;6.966;2022-09-27T12:33:22;12.16;76.84
26721;HTU21D;15950;51.112;6.966;2022-09-27T12:36:16;12.26;77.40
26721;HTU21D;15950;51.112;6.966;2022-09-27T12:42:17;12.21;77.72
26721;HTU21D;15950;51.112;6.966;2022-09-27T12:45:13;11.73;81.97
26721;HTU21D;15950;51.112;6.966;2022-09-27T12:51:15;11.36;87.56
26721;HTU21D;15950;51.112;6.966;2022-09-27T12:57:22;11.19;88.58
26721;HTU21D;15950;51.112;6.966;2022-09-27T13:00:18;10.81;89.09
26721;HTU21D;15950;51.112;6.966;2022-09-27T13:03:24;10.93;89.22
26721;HTU21D;15950;51.112;6.966;2022-09-27T13:09:17;10.86;89.47
26721;HTU21D;15950;51.112;6.966;2022-09-27T13:12:19;11.03;89.55
26721;HTU21D;15950;51.112;6.966;2022-09-27T13:15:15;11.02;89.99
26721;HTU21D;15950;51.112;6.966;2022-09-27T13:39:17;11.10;90.08
26721;HTU21D;15950;51.112;6.966;2022-09-27T13:42:30;11.01;89.19
26721;HTU21D;15950;51.112;6.966;2022-09-27T13:45:19;11.10;89.34
26721;HTU21D;15950;51.112;6.966;2022-09-27T13:48:17;11.27;88.84
26721;HTU21D;15950;51.112;6.966;2022-09-27T14:06:16;11.44;86.23
26721;HTU21D;15950;51.112;6.966;2022-09-27T14:09:20;11.48;85.98
26721;HTU21D;15950;51.112;6.966;2022-09-27T14:12:18;11.46;84.87
26721;HTU21D;15950;51.112;6.966;2022-09-27T14:15:21;11.45;84.13
26721;HTU21D;15950;51.112;6.966;2022-09-27T14:18:12;11.42;83.48
26721;HTU21D;15950;51.112;6.966;2022-09-27T14:27:19;11.55;84.03
26721;HTU21D;15950;51.112;6.966;2022-09-27T14:30:18;11.63;84.00
26721;HTU21D;15950;51.112;6.966;2022-09-27T14:42:19;11.47;81.17
26721;HTU21D;15950;51.112;6.966;2022-09-27T14:45:21;11.44;80.84
26721;HTU21D;15950;51.112;6.966;2022-09-27T14:54:19;11.52;81.91
26721;HTU21D;15950;51.112;6.966;2022-09-27T14:57:14;11.62;82.06
26721;HTU21D;15950;51.112;6.966;2022-09-27T15:00:21;11.64;82.26
26721;HTU21D;15950;51.112;6.966;2022-09-27T15:06:12;11.43;81.22
26721;HTU21D;15950;51.112;6.966;2022-09-27T15:09:14;11.55;81.75
26721;HTU21D;15950;51.112;6.966;2022-09-27T15:12:20;11.52;81.30
26721;HTU21D;15950;51.112;6.966;2022-09-27T15:15:18;11.55;81.49
26721;HTU21D;15950;51.112;6.966;2022-09-27T15:19:01;11.43;81.57
26721;HTU21D;15950;51.112;6.966;2022-09-27T15:27:19;11.51;82.01
26721;HTU21D;15950;51.112;6.966;2022-09-27T15:36:12;11.56;80.49
26721;HTU21D;15950;51.112;6.966;2022-09-27T15:42:13;11.63;81.27
26721;HTU21D;15950;51.112;6.966;2022-09-27T15:48:14;11.75;81.43
26721;HTU21D;15950;51.112;6.966;2022-09-27T15:52:03;11.75;82.36
26721;HTU21D;15950;51.112;6.966;2022-09-27T15:54:12;11.79;82.06
26721;HTU21D;15950;51.112;6.966;2022-09-27T15:57:12;11.64;83.11
26721;HTU21D;15950;51.112;6.966;2022-09-27T16:00:14;11.66;83.36
26721;HTU21D;15950;51.112;6.966;2022-09-27T16:03:12;11.62;82.44
26721;HTU21D;15950;51.112;6.966;2022-09-27T16:06:13;11.77;81.91
26721;HTU21D;15950;51.112;6.966;2022-09-27T16:09:17;11.67;83.26
26721;HTU21D;15950;51.112;6.966;2022-09-27T16:12:12;11.77;83.10
26721;HTU21D;15950;51.112;6.966;2022-09-27T16:15:13;11.85;83.18
26721;HTU21D;15950;51.112;6.966;2022-09-27T16:18:13;11.84;82.71
26721;HTU21D;15950;51.112;6.966;2022-09-27T16:21:12;11.78;82.39
26721;HTU21D;15950;51.112;6.966;2022-09-27T16:24:12;11.80;82.02
26721;HTU21D;15950;51.112;6.966;2022-09-27T16:27:12;11.72;82.53
26721;HTU21D;15950;51.112;6.966;2022-09-27T16:30:13;11.64;81.14
26721;HTU21D;15950;51.112;6.966;2022-09-27T16:33:12;11.61;81.01
26721;HTU21D;15950;51.112;6.966;2022-09-27T16:36:12;11.56;80.43
26721;HTU21D;15950;51.112;6.966;2022-09-27T16:39:12;11.61;80.06
26721;HTU21D;15950;51.112;6.966;2022-09-27T16:42:12;11.52;79.86
26721;HTU21D;15950;51.112;6.966;2022-09-27T16:45:12;11.53;80.62
26721;HTU21D;15950;51.112;6.966;2022-09-27T16:48:12;11.67;79.27
26721;HTU21D;15950;51.112;6.966;2022-09-27T16:51:16;11.49;79.07
26721;HTU21D;15950;51.112;6.966;2022-09-27T16:54:12;11.56;78.97
26721;HTU21D;15950;51.112;6.966;2022-09-27T16:57:12;11.55;79.01
26721;HTU21D;15950;51.112;6.966;2022-09-27T17:00:13;11.59;80.54
26721;HTU21D;15950;51.112;6.966;2022-09-27T17:03:12;11.54;80.91
26721;HTU21D;15950;51.112;6.966;2022-09-27T17:06:12;11.47;81.33
26721;HTU21D;15950;51.112;6.966;2022-09-27T17:09:12;11.36;80.56
26721;HTU21D;15950;51.112;6.966;2022-09-27T17:12:13;11.26;81.51
26721;HTU21D;15950;51.112;6.966;2022-09-27T17:15:13;11.27;81.83
26721;HTU21D;15950;51.112;6.966;2022-09-27T17:18:12;11.16;82.81
26721;HTU21D;15950;51.112;6.966;2022-09-27T17:21:12;11.01;82.65
26721;HTU21D;15950;51.112;6.966;2022-09-27T17:24:12;10.91;82.01
26721;HTU21D;15950;51.112;6.966;2022-09-27T17:27:12;10.99;82.46
26721;HTU21D;15950;51.112;6.966;2022-09-27T17:30:12;10.93;83.01
26721;HTU21D;15950;51.112;6.966;2022-09-27T17:33:12;10.92;83.42
26721;HTU21D;15950;51.112;6.966;2022-09-27T17:36:17;10.90;83.57
26721;HTU21D;15950;51.112;6.966;2022-09-27T17:39:14;10.93;83.46
26721;HTU21D;15950;51.112;6.966;2022-09-27T17:42:12;10.99;83.32
26721;HTU21D;15950;51.112;6.966;2022-09-27T17:45:12;10.98;82.82
26721;HTU21D;15950;51.112;6.966;2022-09-27T17:48:12;10.94;82.46
26721;HTU21D;15950;51.112;6.966;2022-09-27T17:51:12;10.83;83.04
26721;HTU21D;15950;51.112;6.966;2022-09-27T17:54:12;10.74;83.98
26721;HTU21D;15950;51.112;6.966;2022-09-27T17:57:12;10.62;84.80
26721;HTU21D;15950;51.112;6.966;2022-09-27T18:00:12;10.53;85.35
26721;HTU21D;15950;51.112;6.966;2022-09-27T18:03:12;10.45;85.92
26721;HTU21D;15950;51.112;6.966;2022-09-27T18:06:14;10.23;86.27
26721;HTU21D;15950;51.112;6.966;2022-09-27T18:09:14;10.20;87.01
26721;HTU21D;15950;51.112;6.966;2022-09-27T18:12:12;10.22;87.06
26721;HTU21D;15950;51.112;6.966;2022-09-27T18:15:12;10.20;86.99
26721;HTU21D;15950;51.112;6.966;2022-09-27T18:18:12;10.17;86.93
26721;HTU21D;15950;51.112;6.966;2022-09-27T18:21:15;10.16;87.15
26721;HTU21D;15950;51.112;6.966;2022-09-27T18:24:12;10.03;87.45
26721;HTU21D;15950;51.112;6.966;2022-09-27T18:27:12;10.13;87.45
26721;HTU21D;15950;51.112;6.966;2022-09-27T18:30:12;10.09;87.95
26721;HTU21D;15950;51.112;6.966;2022-09-27T18:33:12;10.13;88.15
26721;HTU21D;15950;51.112;6.966;2022-09-27T18:39:14;10.08;88.67
26721;HTU21D;15950;51.112;6.966;2022-09-27T18:42:12;10.16;88.44
26721;HTU21D;15950;51.112;6.966;2022-09-27T18:45:12;10.10;88.48
26721;HTU21D;15950;51.112;6.966;2022-09-27T18:48:12;10.08;88.62
26721;HTU21D;15950;51.112;6.966;2022-09-27T18:51:15;10.07;88.60
26721;HTU21D;15950;51.112;6.966;2022-09-27T18:54:19;10.04;88.78
26721;HTU21D;15950;51.112;6.966;2022-09-27T18:57:12;10.16;88.51
26721;HTU21D;15950;51.112;6.966;2022-09-27T19:00:12;10.23;88.39
26721;HTU21D;15950;51.112;6.966;2022-09-27T19:03:13;10.25;88.44
26721;HTU21D;15950;51.112;6.966;2022-09-27T19:09:12;10.24;89.01
26721;HTU21D;15950;51.112;6.966;2022-09-27T19:12:12;10.19;89.57
26721;HTU21D;15950;51.112;6.966;2022-09-27T19:15:12;10.18;89.75
26721;HTU21D;15950;51.112;6.966;2022-09-27T19:18:12;10.23;89.61
26721;HTU21D;15950;51.112;6.966;2022-09-27T19:21:14;10.11;89.76
26721;HTU21D;15950;51.112;6.966;2022-09-27T19:24:13;9.97;90.31
26721;HTU21D;15950;51.112;6.966;2022-09-27T19:27:12;9.90;90.49
26721;HTU21D;15950;51.112;6.966;2022-09-27T19:30:12;9.78;90.77
26721;HTU21D;15950;51.112;6.966;2022-09-27T19:33:12;9.84;90.98
26721;HTU21D;15950;51.112;6.966;2022-09-27T19:36:13;9.89;90.71
26721;HTU21D;15950;51.112;6.966;2022-09-27T19:39:12;9.83;91.07
26721;HTU21D;15950;51.112;6.966;2022-09-27T19:42:12;9.77;91.36
26721;HTU21D;15950;51.112;6.966;2022-09-27T19:45:12;9.80;91.34
26721;HTU21D;15950;51.112;6.966;2022-09-27T19:48:12;9.69;92.11
26721;HTU21D;15950;51.112;6.966;2022-09-27T19:51:14;9.71;92.17
26721;HTU21D;15950;51.112;6.966;2022-09-27T19:54:12;9.77;92.43
26721;HTU21D;15950;51.112;6.966;2022-09-27T19:57:12;9.75;92.24
26721;HTU21D;15950;51.112;6.966;2022-09-27T20:00:12;9.82;92.41
26721;HTU21D;15950;51.112;6.966;2022-09-27T20:03:12;9.69;92.54
26721;HTU21D;15950;51.112;6.966;2022-09-27T20:06:14;9.65;92.79
26721;HTU21D;15950;51.112;6.966;2022-09-27T20:09:12;9.65;92.84
26721;HTU21D;15950;51.112;6.966;2022-09-27T20:12:12;9.68;92.71
26721;HTU21D;15950;51.112;6.966;2022-09-27T20:15:12;9.54;93.42
26721;HTU21D;15950;51.112;6.966;2022-09-27T20:18:12;9.54;93.47
26721;HTU21D;15950;51.112;6.966;2022-09-27T20:21:12;9.52;93.68
26721;HTU21D;15950;51.112;6.966;2022-09-27T20:24:12;9.51;93.91
26721;HTU21D;15950;51.112;6.966;2022-09-27T20:27:12;9.42;94.33
26721;HTU21D;15950;51.112;6.966;2022-09-27T20:30:12;9.40;94.17
26721;HTU21D;15950;51.112;6.966;2022-09-27T20:33:12;9.42;94.15
26721;HTU21D;15950;51.112;6.966;2022-09-27T20:39:15;9.49;94.12
26721;HTU21D;15950;51.112;6.966;2022-09-27T20:42:12;9.44;93.98
26721;HTU21D;15950;51.112;6.966;2022-09-27T20:45:12;9.55;93.93
26721;HTU21D;15950;51.112;6.966;2022-09-27T20:48:12;9.74;93.67
26721;HTU21D;15950;51.112;6.966;2022-09-27T20:51:13;9.84;93.45
26721;HTU21D;15950;51.112;6.966;2022-09-27T20:54:12;9.88;93.45
26721;HTU21D;15950;51.112;6.966;2022-09-27T20:57:12;9.68;93.54
26721;HTU21D;15950;51.112;6.966;2022-09-27T21:00:12;9.57;93.46
26721;HTU21D;15950;51.112;6.966;2022-09-27T21:03:12;9.52;93.98
26721;HTU21D;15950;51.112;6.966;2022-09-27T21:06:12;9.45;94.53
26721;HTU21D;15950;51.112;6.966;2022-09-27T21:09:12;9.68;94.74
26721;HTU21D;15950;51.112;6.966;2022-09-27T21:12:12;9.66;94.75
26721;HTU21D;15950;51.112;6.966;2022-09-27T21:15:12;9.81;94.81
26721;HTU21D;15950;51.112;6.966;2022-09-27T21:18:12;9.73;94.34
26721;HTU21D;15950;51.112;6.966;2022-09-27T21:21:13;9.91;94.29
26721;HTU21D;15950;51.112;6.966;2022-09-27T21:24:12;9.88;94.09
26721;HTU21D;15950;51.112;6.966;2022-09-27T21:27:12;9.85;94.01
26721;HTU21D;15950;51.112;6.966;2022-09-27T21:30:12;9.81;94.04
26721;HTU21D;15950;51.112;6.966;2022-09-27T21:33:12;9.88;94.29
26721;HTU21D;15950;51.112;6.966;2022-09-27T21:36:12;9.87;94.54
26721;HTU21D;15950;51.112;6.966;2022-09-27T21:39:12;9.70;94.87
26721;HTU21D;15950;51.112;6.966;2022-09-27T21:42:12;9.78;94.68
26721;HTU21D;15950;51.112;6.966;2022-09-27T21:45:12;9.76;94.97
26721;HTU21D;15950;51.112;6.966;2022-09-27T21:48:12;9.75;95.15
26721;HTU21D;15950;51.112;6.966;2022-09-27T21:51:17;9.73;95.16
26721;HTU21D;15950;51.112;6.966;2022-09-27T21:54:13;9.73;95.32
26721;HTU21D;15950;51.112;6.966;2022-09-27T21:57:12;9.81;95.02
26721;HTU21D;15950;51.112;6.966;2022-09-27T22:00:12;9.74;94.91
26721;HTU21D;15950;51.112;6.966;2022-09-27T22:03:12;9.77;94.95
26721;HTU21D;15950;51.112;6.966;2022-09-27T22:06:15;9.82;94.67
26721;HTU21D;15950;51.112;6.966;2022-09-27T22:09:15;9.84;94.22
26721;HTU21D;15950;51.112;6.966;2022-09-27T22:12:12;9.82;94.26
26721;HTU21D;15950;51.112;6.966;2022-09-27T22:15:12;9.84;94.01
26721;HTU21D;15950;51.112;6.966;2022-09-27T22:18:12;9.96;93.56
26721;HTU21D;15950;51.112;6.966;2022-09-27T22:21:18;9.90;93.44
26721;HTU21D;15950;51.112;6.966;2022-09-27T22:24:15;9.76;93.91
26721;HTU21D;15950;51.112;6.966;2022-09-27T22:27:12;9.77;93.93
26721;HTU21D;15950;51.112;6.966;2022-09-27T22:30:12;9.79;94.10
26721;HTU21D;15950;51.112;6.966;2022-09-27T22:33:12;9.77;93.77
26721;HTU21D;15950;51.112;6.966;2022-09-27T22:36:12;9.85;93.62
26721;HTU21D;15950;51.112;6.966;2022-09-27T22:39:12;9.90;93.63
26721;HTU21D;15950;51.112;6.966;2022-09-27T22:42:12;9.85;93.43
26721;HTU21D;15950;51.112;6.966;2022-09-27T22:45:12;9.86;93.16
26721;HTU21D;15950;51.112;6.966;2022-09-27T22:48:13;9.82;92.42